Time;durP1;ratioP1;P1;durP2;ratioP2;P2;SDS_P1;SDS_P2;PMS_P1;PMS_P2;Temp;Humidity;BMP_temperature;BMP_pressure;BME280_temperature;BME280_humidity;BME280_pressure;Samples;Min_cycle;Max_cycle;Signal;HPM_P1;HPM_P2
2023/06/16 00:00:32;;;;;;;8.90;3.78;;;;;;;;;;5036385;27;91712;-70
2023/06/16 00:02:58;;;;;;;10.13;4.22;;;;;;;;;;5035430;28;92477;-70
2023/06/16 00:05:25;;;;;;;11.70;4.80;;;;;;;;;;5038564;28;93651;-70
2023/06/16 00:07:52;;;;;;;8.50;4.35;;;;;;;;;;5034146;28;94815;-70
2023/06/16 00:10:18;;;;;;;8.10;4.22;;;;;;;;;;5036082;27;95168;-71
2023/06/16 00:12:45;;;;;;;7.30;4.00;;;;;;;;;;5035026;28;92414;-70
2023/06/16 00:15:11;;;;;;;7.75;4.15;;;;;;;;;;5035540;28;93018;-71
2023/06/16 00:17:44;;;;;;;6.47;4.13;;;;;;;;;;5034878;27;93498;-71
2023/06/16 00:20:12;;;;;;;8.82;4.45;;;;;;;;;;5035838;28;92461;-70
2023/06/16 00:22:39;;;;;;;5.40;4.00;;;;;;;;;;5035867;28;94279;-70
2023/06/16 00:25:05;;;;;;;6.90;4.50;;;;;;;;;;5035883;28;92873;-70
2023/06/16 00:27:32;;;;;;;14.75;4.03;;;;;;;;;;5037959;28;92429;-70
2023/06/16 00:29:58;;;;;;;8.52;4.45;;;;;;;;;;5035449;27;94489;-70
2023/06/16 00:32:24;;;;;;;9.75;3.88;;;;;;;;;;5033772;27;94902;-70
2023/06/16 00:34:51;;;;;;;8.77;4.32;;;;;;;;;;5035380;28;95572;-70
2023/06/16 00:37:18;;;;;;;9.45;4.22;;;;;;;;;;5035407;27;95002;-70
2023/06/16 00:39:44;;;;;;;8.38;4.15;;;;;;;;;;5035450;28;92534;-70
2023/06/16 00:42:10;;;;;;;8.93;4.18;;;;;;;;;;5017386;28;93241;-70
2023/06/16 00:44:37;;;;;;;7.28;4.00;;;;;;;;;;5034649;28;93629;-70
2023/06/16 00:47:03;;;;;;;16.08;4.63;;;;;;;;;;5034985;28;92437;-70
2023/06/16 00:49:30;;;;;;;6.88;4.28;;;;;;;;;;5038072;28;93458;-70
2023/06/16 00:51:56;;;;;;;5.07;3.95;;;;;;;;;;5034934;28;92768;-70
2023/06/16 00:54:23;;;;;;;9.00;3.88;;;;;;;;;;5035417;27;94216;-70
2023/06/16 00:56:51;;;;;;;8.80;4.07;;;;;;;;;;5033487;28;96871;-70
2023/06/16 00:59:17;;;;;;;9.07;3.83;;;;;;;;;;5034675;27;92470;-70
2023/06/16 01:01:44;;;;;;;6.90;4.60;;;;;;;;;;5034914;28;93330;-70
2023/06/16 01:04:12;;;;;;;6.13;3.90;;;;;;;;;;5034627;28;92708;-70
2023/06/16 01:06:41;;;;;;;10.93;4.03;;;;;;;;;;5034898;28;92737;-70
2023/06/16 01:09:16;;;;;;;8.85;4.68;;;;;;;;;;5034703;28;93006;-70
2023/06/16 01:12:17;;;;;;;11.73;4.63;;;;;;;;;;5037413;27;93618;-70
2023/06/16 01:15:04;;;;;;;6.50;4.40;;;;;;;;;;4933848;28;93261;-70
2023/06/16 01:17:32;;;;;;;7.57;3.97;;;;;;;;;;4933629;28;93968;-70
2023/06/16 01:20:01;;;;;;;9.75;4.15;;;;;;;;;;4933221;28;93090;-70
2023/06/16 01:22:39;;;;;;;6.60;4.25;;;;;;;;;;4931087;28;95250;-70
2023/06/16 01:25:07;;;;;;;6.90;4.57;;;;;;;;;;4932551;28;93535;-70
2023/06/16 01:27:37;;;;;;;12.02;4.57;;;;;;;;;;4932810;28;92701;-70
2023/06/16 01:30:04;;;;;;;9.07;4.20;;;;;;;;;;4933074;28;93270;-70
2023/06/16 01:32:32;;;;;;;10.00;4.93;;;;;;;;;;4933360;28;94953;-70
2023/06/16 01:34:59;;;;;;;8.07;4.30;;;;;;;;;;4936234;28;92508;-70
2023/06/16 01:37:26;;;;;;;8.80;4.95;;;;;;;;;;4933009;28;93911;-70
2023/06/16 01:39:53;;;;;;;14.25;4.72;;;;;;;;;;4933453;28;91772;-70
2023/06/16 01:42:19;;;;;;;10.70;4.80;;;;;;;;;;4933068;28;92863;-70
2023/06/16 01:44:46;;;;;;;9.75;4.50;;;;;;;;;;4932611;28;93656;-70
2023/06/16 01:47:13;;;;;;;13.35;5.25;;;;;;;;;;4921564;28;94903;-70
2023/06/16 01:49:40;;;;;;;9.90;4.60;;;;;;;;;;4997418;28;95575;-70
2023/06/16 01:52:07;;;;;;;7.60;4.93;;;;;;;;;;5013771;28;93457;-70
2023/06/16 01:54:33;;;;;;;18.88;5.00;;;;;;;;;;5013913;28;92447;-70
2023/06/16 01:56:59;;;;;;;13.18;5.22;;;;;;;;;;5016894;28;93084;-70
2023/06/16 01:59:26;;;;;;;7.32;5.00;;;;;;;;;;5014135;28;92456;-70
2023/06/16 02:01:55;;;;;;;8.73;5.38;;;;;;;;;;5014133;28;92495;-70
2023/06/16 02:04:23;;;;;;;8.68;4.57;;;;;;;;;;5014011;28;92783;-70
2023/06/16 02:07:01;;;;;;;10.50;4.60;;;;;;;;;;5014148;28;92692;-70
2023/06/16 02:09:28;;;;;;;10.65;5.07;;;;;;;;;;5014407;28;95043;-70
2023/06/16 02:11:55;;;;;;;10.82;4.72;;;;;;;;;;5011956;28;96023;-70
2023/06/16 02:14:22;;;;;;;8.85;4.75;;;;;;;;;;5013316;28;92453;-70
2023/06/16 02:16:51;;;;;;;7.25;4.80;;;;;;;;;;5024206;28;94480;-70
2023/06/16 02:19:17;;;;;;;10.43;4.80;;;;;;;;;;5034282;27;92515;-70
2023/06/16 02:21:43;;;;;;;13.45;5.35;;;;;;;;;;5033803;28;93344;-70
2023/06/16 02:24:10;;;;;;;11.90;5.53;;;;;;;;;;5033805;28;92518;-69
2023/06/16 02:26:39;;;;;;;9.60;5.25;;;;;;;;;;5033126;28;92714;-70
2023/06/16 02:29:05;;;;;;;6.72;5.20;;;;;;;;;;5034694;28;94343;-70
2023/06/16 02:31:32;;;;;;;15.15;4.97;;;;;;;;;;5033764;28;93816;-70
2023/06/16 02:33:59;;;;;;;13.65;5.65;;;;;;;;;;5033606;27;92482;-69
2023/06/16 02:36:25;;;;;;;21.13;4.85;;;;;;;;;;5035387;28;94769;-70
2023/06/16 02:38:52;;;;;;;15.05;4.85;;;;;;;;;;5040137;28;93884;-70
2023/06/16 02:41:18;;;;;;;6.53;4.93;;;;;;;;;;5036745;27;93228;-70
2023/06/16 02:43:44;;;;;;;10.20;4.90;;;;;;;;;;5037022;27;93538;-70
2023/06/16 02:46:11;;;;;;;9.05;4.43;;;;;;;;;;5037015;28;92397;-70
2023/06/16 02:48:37;;;;;;;10.32;4.38;;;;;;;;;;5037458;28;94230;-70
2023/06/16 02:51:03;;;;;;;7.22;4.38;;;;;;;;;;5036889;28;93988;-69
2023/06/16 02:53:30;;;;;;;5.88;4.55;;;;;;;;;;5037521;28;91623;-70
2023/06/16 02:55:56;;;;;;;8.20;4.28;;;;;;;;;;5036707;27;92576;-70
2023/06/16 02:58:23;;;;;;;7.68;4.40;;;;;;;;;;5036943;28;93541;-70
2023/06/16 03:00:49;;;;;;;11.98;4.55;;;;;;;;;;5020591;28;95004;-69
2023/06/16 03:03:16;;;;;;;23.88;5.38;;;;;;;;;;5036917;28;92393;-70
2023/06/16 03:05:43;;;;;;;18.55;4.72;;;;;;;;;;5036425;28;92408;-69
2023/06/16 03:08:09;;;;;;;6.75;4.53;;;;;;;;;;5035872;28;94248;-69
2023/06/16 03:10:36;;;;;;;18.25;4.50;;;;;;;;;;5036474;28;93635;-70
2023/06/16 03:13:02;;;;;;;6.38;4.57;;;;;;;;;;5036789;27;92788;-70
2023/06/16 03:15:30;;;;;;;15.13;5.55;;;;;;;;;;5018950;28;94247;-69
2023/06/16 03:17:57;;;;;;;8.82;4.70;;;;;;;;;;5037067;28;92866;-70
2023/06/16 03:20:25;;;;;;;9.57;4.57;;;;;;;;;;5036994;28;92458;-69
2023/06/16 03:22:52;;;;;;;9.55;4.75;;;;;;;;;;5021846;28;93163;-70
2023/06/16 03:25:21;;;;;;;6.35;4.65;;;;;;;;;;5034611;27;94868;-70
2023/06/16 03:27:47;;;;;;;14.68;5.07;;;;;;;;;;5035462;28;96271;-69
2023/06/16 03:30:13;;;;;;;18.20;5.53;;;;;;;;;;5035958;27;93532;-70
2023/06/16 03:32:40;;;;;;;11.27;5.35;;;;;;;;;;5036700;28;92431;-69
2023/06/16 03:35:06;;;;;;;9.15;4.90;;;;;;;;;;5036089;27;93235;-69
2023/06/16 03:37:34;;;;;;;15.18;5.03;;;;;;;;;;5035565;28;93487;-70
2023/06/16 03:40:05;;;;;;;11.80;4.95;;;;;;;;;;5036046;28;92423;-70
2023/06/16 03:42:32;;;;;;;10.77;4.82;;;;;;;;;;5036376;28;93181;-70
2023/06/16 03:44:59;;;;;;;17.30;4.82;;;;;;;;;;5038583;28;93626;-70
2023/06/16 03:47:26;;;;;;;22.73;5.60;;;;;;;;;;5034875;27;93420;-69
2023/06/16 03:49:55;;;;;;;21.05;6.13;;;;;;;;;;5033847;28;96289;-70
2023/06/16 03:52:21;;;;;;;21.88;5.57;;;;;;;;;;5035698;27;92482;-70
2023/06/16 03:54:48;;;;;;;19.92;5.72;;;;;;;;;;5035786;28;93202;-69
2023/06/16 03:57:15;;;;;;;8.68;4.70;;;;;;;;;;5034095;28;93467;-70
2023/06/16 03:59:41;;;;;;;8.13;5.07;;;;;;;;;;5035693;28;92510;-71
2023/06/16 04:02:08;;;;;;;17.52;5.95;;;;;;;;;;5035596;27;93114;-70
2023/06/16 04:04:35;;;;;;;18.00;4.97;;;;;;;;;;5035449;28;93478;-70
2023/06/16 04:07:05;;;;;;;10.48;5.00;;;;;;;;;;5039192;27;91732;-71
2023/06/16 04:09:31;;;;;;;13.88;5.20;;;;;;;;;;5035462;28;93989;-70
2023/06/16 04:11:58;;;;;;;5.25;4.72;;;;;;;;;;5035732;28;92946;-70
2023/06/16 04:14:24;;;;;;;14.35;5.00;;;;;;;;;;5033857;28;95175;-70
2023/06/16 04:16:50;;;;;;;29.98;5.72;;;;;;;;;;5034930;28;93442;-70
2023/06/16 04:19:19;;;;;;;10.27;4.60;;;;;;;;;;5035007;27;92504;-71
2023/06/16 04:21:46;;;;;;;12.18;5.00;;;;;;;;;;5035346;28;93304;-70
2023/06/16 04:24:12;;;;;;;10.90;4.53;;;;;;;;;;5034082;28;93564;-70
2023/06/16 04:26:41;;;;;;;12.32;5.25;;;;;;;;;;5037678;28;92532;-70
2023/06/16 04:29:08;;;;;;;11.35;5.30;;;;;;;;;;5035066;28;93274;-70
2023/06/16 04:31:37;;;;;;;16.60;5.25;;;;;;;;;;5017597;28;91756;-70
2023/06/16 04:34:03;;;;;;;18.38;5.35;;;;;;;;;;5034982;28;92357;-70
2023/06/16 04:36:30;;;;;;;8.10;4.80;;;;;;;;;;5035452;28;93549;-71
2023/06/16 04:38:57;;;;;;;10.43;5.28;;;;;;;;;;5033494;28;95145;-70
2023/06/16 04:41:24;;;;;;;8.38;5.63;;;;;;;;;;5035124;28;95938;-70
2023/06/16 04:43:50;;;;;;;9.88;5.57;;;;;;;;;;5034809;28;93271;-70
2023/06/16 04:46:17;;;;;;;20.00;5.80;;;;;;;;;;5034734;27;92910;-71
2023/06/16 04:48:43;;;;;;;9.73;4.97;;;;;;;;;;5038045;28;93134;-70
2023/06/16 04:51:10;;;;;;;7.10;5.00;;;;;;;;;;5034943;28;92433;-71
2023/06/16 04:53:36;;;;;;;13.60;5.35;;;;;;;;;;5034775;28;93443;-70
2023/06/16 04:56:03;;;;;;;11.75;4.85;;;;;;;;;;5035513;27;93804;-70
2023/06/16 04:58:30;;;;;;;10.93;5.32;;;;;;;;;;5034333;27;92497;-70
2023/06/16 05:00:56;;;;;;;21.92;5.38;;;;;;;;;;5034613;28;93337;-71
2023/06/16 05:03:22;;;;;;;11.32;5.00;;;;;;;;;;5032692;28;95956;-70
2023/06/16 05:05:49;;;;;;;8.80;5.07;;;;;;;;;;5034547;28;92696;-70
2023/06/16 05:08:15;;;;;;;9.50;5.07;;;;;;;;;;5034798;27;93328;-70
2023/06/16 05:10:42;;;;;;;16.80;5.40;;;;;;;;;;5037354;28;93473;-70
2023/06/16 05:13:08;;;;;;;9.95;5.00;;;;;;;;;;5034499;28;92430;-70
2023/06/16 05:15:35;;;;;;;13.05;5.60;;;;;;;;;;5034050;28;92484;-71
2023/06/16 05:18:01;;;;;;;9.48;5.60;;;;;;;;;;5016755;28;92470;-70
2023/06/16 05:20:27;;;;;;;9.55;5.18;;;;;;;;;;5035290;28;93297;-70
2023/06/16 05:22:54;;;;;;;13.10;5.70;;;;;;;;;;5033974;27;93437;-70
2023/06/16 05:25:20;;;;;;;15.23;5.68;;;;;;;;;;5034912;28;92481;-71
2023/06/16 05:27:47;;;;;;;8.88;5.72;;;;;;;;;;5032385;28;94933;-70
2023/06/16 05:30:13;;;;;;;11.23;5.95;;;;;;;;;;5034261;27;94801;-71
2023/06/16 05:32:40;;;;;;;12.02;5.72;;;;;;;;;;5037314;27;92445;-70
2023/06/16 05:35:07;;;;;;;11.55;6.18;;;;;;;;;;5034203;28;93637;-70
2023/06/16 05:37:33;;;;;;;16.33;6.45;;;;;;;;;;5034501;28;92485;-70
2023/06/16 05:39:59;;;;;;;13.45;5.85;;;;;;;;;;5034172;28;93203;-70
2023/06/16 05:42:26;;;;;;;16.73;6.88;;;;;;;;;;5033800;28;93535;-70
2023/06/16 05:44:52;;;;;;;14.88;6.65;;;;;;;;;;5034547;27;91795;-71
2023/06/16 05:47:19;;;;;;;11.43;6.07;;;;;;;;;;5034172;28;93468;-71
2023/06/16 05:49:45;;;;;;;14.85;5.72;;;;;;;;;;5034507;28;94429;-70
2023/06/16 05:52:11;;;;;;;11.25;6.00;;;;;;;;;;5032906;28;94907;-71
2023/06/16 05:54:38;;;;;;;17.08;6.50;;;;;;;;;;5037388;28;96610;-71
2023/06/16 05:57:05;;;;;;;13.25;6.70;;;;;;;;;;5034080;28;92851;-72
2023/06/16 05:59:31;;;;;;;10.27;5.82;;;;;;;;;;5033942;28;93324;-71
2023/06/16 06:01:57;;;;;;;8.40;6.43;;;;;;;;;;5015697;28;93575;-71
2023/06/16 06:04:28;;;;;;;13.55;6.00;;;;;;;;;;5033724;28;92541;-71
2023/06/16 06:06:55;;;;;;;14.60;6.38;;;;;;;;;;5015775;28;93410;-71
2023/06/16 06:09:21;;;;;;;10.00;6.18;;;;;;;;;;5034568;27;92782;-71
2023/06/16 06:11:48;;;;;;;11.27;6.60;;;;;;;;;;5038063;28;92508;-71
2023/06/16 06:14:14;;;;;;;12.10;6.10;;;;;;;;;;5040065;27;93272;-70
2023/06/16 06:16:40;;;;;;;10.50;5.88;;;;;;;;;;5035723;28;94859;-70
2023/06/16 06:19:07;;;;;;;11.35;6.30;;;;;;;;;;5037044;28;95982;-71
2023/06/16 06:21:34;;;;;;;8.65;5.43;;;;;;;;;;5037196;28;93482;-70
2023/06/16 06:24:01;;;;;;;12.70;6.30;;;;;;;;;;5036986;27;92448;-71
2023/06/16 06:26:27;;;;;;;10.98;6.00;;;;;;;;;;5036311;28;93311;-71
2023/06/16 06:28:54;;;;;;;14.77;6.03;;;;;;;;;;5036907;28;93620;-71
2023/06/16 06:31:20;;;;;;;19.23;6.60;;;;;;;;;;5037271;28;92542;-70
2023/06/16 06:33:46;;;;;;;14.65;6.57;;;;;;;;;;5037958;28;94241;-70
2023/06/16 06:36:23;;;;;;;12.90;5.95;;;;;;;;;;5039973;28;93443;-70
2023/06/16 06:38:49;;;;;;;14.00;5.70;;;;;;;;;;5036676;28;93298;-71
2023/06/16 06:41:16;;;;;;;9.77;5.68;;;;;;;;;;5034993;28;96122;-71
2023/06/16 06:43:42;;;;;;;11.15;5.68;;;;;;;;;;5036853;27;92485;-71
2023/06/16 06:46:09;;;;;;;8.15;6.03;;;;;;;;;;5036368;27;93126;-70
2023/06/16 06:48:35;;;;;;;9.75;5.60;;;;;;;;;;5036788;28;93986;-70
2023/06/16 06:51:02;;;;;;;16.65;6.35;;;;;;;;;;5037258;27;92458;-71
2023/06/16 06:53:28;;;;;;;11.63;5.82;;;;;;;;;;5036405;27;93688;-71
2023/06/16 06:55:55;;;;;;;15.70;6.60;;;;;;;;;;5036832;27;94473;-71
2023/06/16 06:58:21;;;;;;;6.85;6.15;;;;;;;;;;5040309;28;91672;-71
2023/06/16 07:00:47;;;;;;;13.05;5.68;;;;;;;;;;5036552;27;93475;-71
2023/06/16 07:03:14;;;;;;;11.27;5.50;;;;;;;;;;5036873;28;92672;-69
2023/06/16 07:05:42;;;;;;;11.63;5.43;;;;;;;;;;5035190;28;94751;-69
2023/06/16 07:08:08;;;;;;;6.20;4.97;;;;;;;;;;5036178;27;94547;-71
2023/06/16 07:10:36;;;;;;;9.07;5.28;;;;;;;;;;5036574;28;92484;-71
2023/06/16 07:13:02;;;;;;;13.63;4.95;;;;;;;;;;5036774;27;94788;-71
2023/06/16 07:15:29;;;;;;;18.35;4.88;;;;;;;;;;5036246;28;93308;-71
2023/06/16 07:17:55;;;;;;;14.02;6.28;;;;;;;;;;5035961;28;92406;-71
2023/06/16 07:20:22;;;;;;;10.02;5.10;;;;;;;;;;5039095;27;93168;-71
2023/06/16 07:22:48;;;;;;;18.75;5.72;;;;;;;;;;5019024;28;91762;-71
2023/06/16 07:25:15;;;;;;;7.70;5.70;;;;;;;;;;5036273;28;92717;-71
2023/06/16 07:27:43;;;;;;;11.93;5.25;;;;;;;;;;5035382;28;93810;-71
2023/06/16 07:30:10;;;;;;;14.70;5.03;;;;;;;;;;5035152;27;94894;-71
2023/06/16 07:32:39;;;;;;;8.70;4.68;;;;;;;;;;5036076;28;95760;-71
2023/06/16 07:35:07;;;;;;;5.78;4.18;;;;;;;;;;5035834;28;93587;-71
2023/06/16 07:37:33;;;;;;;11.48;4.30;;;;;;;;;;5035910;28;92420;-71
2023/06/16 07:40:00;;;;;;;7.47;4.90;;;;;;;;;;5035979;28;93345;-71
2023/06/16 07:42:42;;;;;;;9.13;4.00;;;;;;;;;;5039053;28;92919;-71
2023/06/16 07:45:09;;;;;;;7.75;4.32;;;;;;;;;;5035713;28;93407;-71
2023/06/16 07:47:35;;;;;;;8.25;4.63;;;;;;;;;;5036135;28;92929;-71
2023/06/16 07:50:02;;;;;;;11.10;4.45;;;;;;;;;;5036224;28;92612;-71
2023/06/16 07:52:29;;;;;;;7.40;4.10;;;;;;;;;;5035864;28;93230;-71
2023/06/16 07:54:55;;;;;;;6.47;3.88;;;;;;;;;;5033926;28;95907;-71
2023/06/16 07:57:21;;;;;;;9.82;4.18;;;;;;;;;;5035852;27;92454;-72
2023/06/16 07:59:48;;;;;;;8.32;3.85;;;;;;;;;;5035684;28;93180;-71
2023/06/16 08:02:14;;;;;;;12.40;4.30;;;;;;;;;;5035119;28;93238;-71
2023/06/16 08:04:41;;;;;;;11.50;4.13;;;;;;;;;;5039368;28;92462;-71
2023/06/16 08:07:07;;;;;;;10.82;3.88;;;;;;;;;;5035754;28;94467;-71
2023/06/16 08:09:34;;;;;;;10.15;4.25;;;;;;;;;;5035598;28;92429;-72
2023/06/16 08:12:00;;;;;;;8.05;3.20;;;;;;;;;;5036114;28;93008;-71
2023/06/16 08:14:27;;;;;;;6.05;3.38;;;;;;;;;;5035472;28;93968;-70
2023/06/16 08:16:53;;;;;;;4.57;3.15;;;;;;;;;;5035108;27;92489;-70
2023/06/16 08:19:20;;;;;;;3.08;2.67;;;;;;;;;;5033858;28;94875;-70
2023/06/16 08:21:46;;;;;;;6.50;3.17;;;;;;;;;;5035951;28;94608;-71
2023/06/16 08:24:12;;;;;;;9.05;2.97;;;;;;;;;;5038503;28;92482;-71
2023/06/16 08:26:39;;;;;;;5.93;3.10;;;;;;;;;;5035284;28;94380;-71
2023/06/16 08:29:07;;;;;;;5.28;3.08;;;;;;;;;;5035662;27;92753;-70
2023/06/16 08:31:33;;;;;;;6.22;2.70;;;;;;;;;;5035440;28;93346;-71
2023/06/16 08:34:01;;;;;;;5.03;3.15;;;;;;;;;;5034385;28;93409;-71
2023/06/16 08:36:27;;;;;;;8.63;2.90;;;;;;;;;;5035764;27;91732;-71
2023/06/16 08:38:53;;;;;;;11.35;3.15;;;;;;;;;;5034948;28;92395;-71
2023/06/16 08:41:20;;;;;;;3.72;2.70;;;;;;;;;;5035012;28;93444;-71
2023/06/16 08:43:48;;;;;;;9.07;3.15;;;;;;;;;;5033709;28;95135;-71
2023/06/16 08:46:15;;;;;;;3.35;2.97;;;;;;;;;;5038133;28;94823;-71
2023/06/16 08:48:41;;;;;;;7.55;3.08;;;;;;;;;;5034961;27;92625;-71
2023/06/16 08:51:09;;;;;;;12.27;3.10;;;;;;;;;;5035208;27;92762;-71
2023/06/16 08:53:38;;;;;;;5.07;2.65;;;;;;;;;;5034826;28;93633;-71
2023/06/16 08:56:05;;;;;;;7.70;2.95;;;;;;;;;;5034814;28;92484;-71
2023/06/16 08:58:33;;;;;;;8.80;2.70;;;;;;;;;;5034567;28;93680;-71
2023/06/16 09:01:01;;;;;;;3.75;2.90;;;;;;;;;;5035380;28;94359;-71
2023/06/16 09:03:27;;;;;;;9.73;2.75;;;;;;;;;;5035128;28;92481;-71
2023/06/16 09:05:54;;;;;;;10.95;2.92;;;;;;;;;;5034523;28;92424;-71
2023/06/16 09:08:20;;;;;;;3.70;2.70;;;;;;;;;;5035931;27;95862;-71
2023/06/16 09:10:54;;;;;;;11.52;2.95;;;;;;;;;;5034503;28;95579;-71
2023/06/16 09:13:21;;;;;;;4.80;3.08;;;;;;;;;;5016762;28;93564;-71
2023/06/16 09:15:48;;;;;;;5.20;2.58;;;;;;;;;;5034523;28;92424;-71
2023/06/16 09:18:15;;;;;;;7.25;2.65;;;;;;;;;;5034668;28;94244;-71
2023/06/16 09:20:51;;;;;;;6.90;3.10;;;;;;;;;;5034303;27;93458;-71
2023/06/16 09:23:29;;;;;;;3.38;2.80;;;;;;;;;;5034585;28;92450;-71
2023/06/16 09:25:56;;;;;;;4.35;3.15;;;;;;;;;;5034782;28;93337;-71
2023/06/16 09:28:35;;;;;;;6.63;2.85;;;;;;;;;;5031842;28;93780;-71
2023/06/16 09:31:02;;;;;;;4.25;3.03;;;;;;;;;;5037433;28;92528;-70
2023/06/16 09:33:38;;;;;;;5.68;2.80;;;;;;;;;;5012625;28;96885;-71
2023/06/16 09:36:05;;;;;;;6.22;2.90;;;;;;;;;;5018779;28;92826;-71
2023/06/16 09:38:35;;;;;;;7.13;3.13;;;;;;;;;;5034597;28;93320;-72
2023/06/16 09:41:15;;;;;;;2.63;2.42;;;;;;;;;;5034139;28;93617;-71
2023/06/16 09:43:42;;;;;;;4.03;2.85;;;;;;;;;;5033484;27;92484;-71
2023/06/16 09:46:10;;;;;;;3.25;2.63;;;;;;;;;;5033202;28;93585;-71
2023/06/16 09:48:44;;;;;;;6.78;2.78;;;;;;;;;;5033647;28;93735;-71
2023/06/16 09:51:10;;;;;;;7.95;2.88;;;;;;;;;;5034991;28;91649;-71
2023/06/16 09:53:37;;;;;;;4.15;2.60;;;;;;;;;;5037240;28;92454;-71
2023/06/16 09:56:05;;;;;;;6.20;2.65;;;;;;;;;;5033981;28;92457;-72
2023/06/16 09:58:31;;;;;;;2.80;2.60;;;;;;;;;;5032261;28;95507;-71
2023/06/16 10:01:08;;;;;;;4.50;3.05;;;;;;;;;;5033621;27;93629;-71
2023/06/16 10:03:37;;;;;;;3.53;2.63;;;;;;;;;;5033735;28;92498;-72
2023/06/16 10:06:10;;;;;;;6.57;2.90;;;;;;;;;;5033794;28;92557;-71
2023/06/16 10:08:39;;;;;;;3.83;2.78;;;;;;;;;;5033545;28;93496;-71
2023/06/16 10:11:07;;;;;;;8.93;2.33;;;;;;;;;;5034411;28;92379;-71
2023/06/16 10:13:34;;;;;;;7.50;2.97;;;;;;;;;;5033107;28;93216;-71
2023/06/16 10:16:02;;;;;;;3.55;2.50;;;;;;;;;;5037323;27;93004;-71
2023/06/16 10:18:29;;;;;;;6.15;2.78;;;;;;;;;;5033701;28;92531;-71
2023/06/16 10:20:56;;;;;;;3.35;2.95;;;;;;;;;;5033488;28;93414;-71
2023/06/16 10:23:22;;;;;;;4.90;2.67;;;;;;;;;;5031984;28;94844;-71
2023/06/16 10:25:49;;;;;;;13.13;3.50;;;;;;;;;;5033964;27;96230;-71
2023/06/16 10:28:15;;;;;;;3.75;2.72;;;;;;;;;;5015212;28;94327;-71
2023/06/16 10:30:43;;;;;;;2.95;2.65;;;;;;;;;;5016086;28;92494;-72
2023/06/16 10:33:16;;;;;;;2.95;2.45;;;;;;;;;;5033534;28;92359;-71
2023/06/16 10:35:49;;;;;;;5.07;2.50;;;;;;;;;;5036687;28;94463;-71
2023/06/16 10:38:19;;;;;;;4.97;2.67;;;;;;;;;;5033448;28;93112;-71
2023/06/16 10:40:45;;;;;;;4.20;2.72;;;;;;;;;;5033432;28;92779;-71
2023/06/16 10:43:23;;;;;;;5.78;3.00;;;;;;;;;;5033459;28;92477;-72
2023/06/16 10:45:49;;;;;;;5.38;2.75;;;;;;;;;;5033602;28;94213;-71
2023/06/16 10:48:15;;;;;;;4.20;2.60;;;;;;;;;;5031570;28;96837;-72
2023/06/16 10:50:42;;;;;;;7.75;3.33;;;;;;;;;;5033695;28;92415;-71
2023/06/16 10:53:13;;;;;;;7.15;2.75;;;;;;;;;;5032082;27;94168;-71
2023/06/16 10:55:44;;;;;;;5.82;2.63;;;;;;;;;;5034192;27;94566;-71
2023/06/16 10:58:18;;;;;;;9.48;3.05;;;;;;;;;;5039869;28;92613;-72
2023/06/16 11:00:55;;;;;;;7.82;2.67;;;;;;;;;;5036481;28;93934;-73
2023/06/16 11:03:22;;;;;;;3.03;2.50;;;;;;;;;;5036512;27;92507;-71
2023/06/16 11:05:57;;;;;;;5.35;2.70;;;;;;;;;;5037120;28;93151;-71
2023/06/16 11:08:24;;;;;;;4.13;2.53;;;;;;;;;;5036234;28;93353;-73
2023/06/16 11:10:51;;;;;;;7.28;2.60;;;;;;;;;;5036867;28;92405;-72
2023/06/16 11:13:18;;;;;;;5.55;2.72;;;;;;;;;;5035242;27;94782;-72
2023/06/16 11:15:45;;;;;;;5.38;3.20;;;;;;;;;;5036617;28;94830;-70
2023/06/16 11:18:12;;;;;;;10.25;3.08;;;;;;;;;;5036581;28;92448;-70
2023/06/16 11:20:39;;;;;;;5.00;2.90;;;;;;;;;;5039357;28;93588;-70
2023/06/16 11:23:06;;;;;;;4.50;2.67;;;;;;;;;;5018119;28;92537;-70
2023/06/16 11:25:34;;;;;;;7.20;2.67;;;;;;;;;;5036682;28;94269;-70
2023/06/16 11:28:01;;;;;;;3.63;2.92;;;;;;;;;;5035753;27;93544;-70
2023/06/16 11:30:29;;;;;;;5.85;2.88;;;;;;;;;;5036541;28;91748;-70
2023/06/16 11:32:57;;;;;;;8.90;2.83;;;;;;;;;;5035861;28;92770;-71
2023/06/16 11:35:30;;;;;;;2.70;2.42;;;;;;;;;;5036242;27;93679;-71
2023/06/16 11:37:56;;;;;;;5.38;3.10;;;;;;;;;;5034490;28;94804;-71
2023/06/16 11:40:24;;;;;;;8.57;3.35;;;;;;;;;;5035699;27;95600;-72
2023/06/16 11:42:54;;;;;;;2.83;2.47;;;;;;;;;;5038812;28;92487;-72
2023/06/16 11:45:20;;;;;;;4.10;2.47;;;;;;;;;;5035376;28;93231;-71
2023/06/16 11:47:47;;;;;;;4.03;2.17;;;;;;;;;;5036252;28;95492;-71
2023/06/16 11:50:15;;;;;;;4.05;2.58;;;;;;;;;;5036192;27;92448;-72
2023/06/16 11:52:41;;;;;;;8.05;2.78;;;;;;;;;;5035861;27;93578;-71
2023/06/16 11:55:08;;;;;;;3.97;2.55;;;;;;;;;;5036160;28;92733;-71
2023/06/16 11:57:37;;;;;;;4.22;2.60;;;;;;;;;;5035506;28;92815;-72
2023/06/16 12:00:04;;;;;;;5.45;2.55;;;;;;;;;;5035731;28;93229;-71
2023/06/16 12:02:31;;;;;;;6.03;2.53;;;;;;;;;;5034366;27;96992;-71
2023/06/16 12:04:57;;;;;;;5.22;2.55;;;;;;;;;;5039100;28;92466;-72
2023/06/16 12:07:24;;;;;;;9.32;2.63;;;;;;;;;;5034493;27;93455;-71
2023/06/16 12:09:53;;;;;;;8.63;2.50;;;;;;;;;;5017741;28;92539;-71
2023/06/16 12:12:20;;;;;;;8.20;3.17;;;;;;;;;;5035463;28;93359;-71
2023/06/16 12:14:46;;;;;;;9.20;2.60;;;;;;;;;;5035414;28;93486;-71
2023/06/16 12:17:12;;;;;;;4.93;2.35;;;;;;;;;;5035424;28;92400;-71
2023/06/16 12:19:39;;;;;;;7.75;2.50;;;;;;;;;;5036387;28;94586;-71
2023/06/16 12:22:08;;;;;;;10.52;3.00;;;;;;;;;;5035611;28;94528;-72
2023/06/16 12:24:38;;;;;;;6.18;2.72;;;;;;;;;;5035174;27;92432;-72
2023/06/16 12:27:05;;;;;;;2.80;2.40;;;;;;;;;;5036814;28;94779;-72
2023/06/16 12:29:31;;;;;;;6.78;2.53;;;;;;;;;;5035696;28;92481;-71
2023/06/16 12:32:00;;;;;;;5.30;2.50;;;;;;;;;;5035532;27;92413;-72
2023/06/16 12:34:35;;;;;;;6.15;2.38;;;;;;;;;;5035701;28;95810;-71
2023/06/16 12:37:03;;;;;;;6.03;2.88;;;;;;;;;;5035075;27;92552;-72
2023/06/16 12:39:30;;;;;;;8.27;2.75;;;;;;;;;;5034822;28;93160;-72
2023/06/16 12:41:57;;;;;;;5.50;2.60;;;;;;;;;;5035033;28;93516;-72
2023/06/16 12:44:23;;;;;;;3.97;2.90;;;;;;;;;;5035160;27;91921;-71
2023/06/16 12:46:50;;;;;;;4.18;2.50;;;;;;;;;;5037985;28;92380;-72
2023/06/16 12:49:19;;;;;;;8.02;2.10;;;;;;;;;;5034933;28;92410;-72
2023/06/16 12:51:45;;;;;;;3.78;2.22;;;;;;;;;;5033511;28;94917;-72
2023/06/16 12:54:11;;;;;;;8.27;2.30;;;;;;;;;;5035320;27;93224;-72
2023/06/16 12:56:38;;;;;;;6.25;2.47;;;;;;;;;;5035092;28;92487;-72
2023/06/16 12:59:04;;;;;;;8.95;3.00;;;;;;;;;;5034485;28;93188;-72
2023/06/16 13:01:30;;;;;;;3.65;2.60;;;;;;;;;;5034678;28;93251;-72
2023/06/16 13:03:57;;;;;;;7.20;2.90;;;;;;;;;;5034936;27;92494;-72
2023/06/16 13:06:23;;;;;;;5.05;2.58;;;;;;;;;;5034370;28;93151;-72
2023/06/16 13:08:50;;;;;;;7.93;3.00;;;;;;;;;;5037783;28;93087;-72
2023/06/16 13:11:17;;;;;;;9.10;2.80;;;;;;;;;;5034559;28;92493;-72
2023/06/16 13:13:44;;;;;;;3.22;2.40;;;;;;;;;;5034365;28;93431;-72
2023/06/16 13:16:10;;;;;;;4.20;2.55;;;;;;;;;;5033154;28;94864;-72
2023/06/16 13:18:37;;;;;;;2.55;2.30;;;;;;;;;;5034489;27;96063;-72
2023/06/16 13:21:03;;;;;;;14.95;2.70;;;;;;;;;;5034438;28;94533;-72
2023/06/16 13:23:29;;;;;;;6.85;2.53;;;;;;;;;;5034798;28;92552;-72
2023/06/16 13:25:56;;;;;;;7.38;2.80;;;;;;;;;;5034310;28;93369;-72
2023/06/16 13:28:22;;;;;;;3.80;2.70;;;;;;;;;;5033760;28;93714;-72
2023/06/16 13:30:48;;;;;;;2.75;2.50;;;;;;;;;;5037585;28;92468;-72
2023/06/16 13:33:15;;;;;;;8.80;2.55;;;;;;;;;;5034477;28;92698;-72
2023/06/16 13:35:41;;;;;;;8.48;2.42;;;;;;;;;;5034137;27;92721;-72
2023/06/16 13:38:07;;;;;;;10.02;2.50;;;;;;;;;;5034195;28;92387;-72
2023/06/16 13:40:34;;;;;;;3.90;2.72;;;;;;;;;;5032037;28;95856;-72
2023/06/16 13:43:02;;;;;;;15.38;2.92;;;;;;;;;;5034038;27;92510;-72
2023/06/16 13:45:28;;;;;;;2.67;2.38;;;;;;;;;;5034001;28;93687;-72
2023/06/16 13:47:56;;;;;;;5.88;2.72;;;;;;;;;;5033994;28;94494;-72
2023/06/16 13:50:22;;;;;;;3.50;2.42;;;;;;;;;;5034568;28;92453;-74
2023/06/16 13:52:48;;;;;;;4.35;2.55;;;;;;;;;;5037016;28;93190;-72
2023/06/16 13:55:15;;;;;;;4.47;2.60;;;;;;;;;;5033891;28;92413;-71
2023/06/16 13:57:41;;;;;;;3.58;2.55;;;;;;;;;;5034965;28;94826;-71
2023/06/16 14:00:09;;;;;;;3.80;2.47;;;;;;;;;;5033800;28;93985;-71
2023/06/16 14:02:35;;;;;;;3.70;2.40;;;;;;;;;;5033844;28;93178;-72
2023/06/16 14:05:02;;;;;;;4.07;2.67;;;;;;;;;;5032581;28;94801;-72
2023/06/16 14:07:28;;;;;;;14.57;3.10;;;;;;;;;;5033579;28;93113;-71
2023/06/16 14:09:55;;;;;;;5.53;2.60;;;;;;;;;;5033987;27;92496;-72
2023/06/16 14:12:21;;;;;;;10.35;2.92;;;;;;;;;;5033578;28;93331;-72
2023/06/16 14:14:47;;;;;;;7.82;2.42;;;;;;;;;;5036900;28;93608;-72
2023/06/16 14:17:14;;;;;;;6.03;2.55;;;;;;;;;;5033310;27;93192;-72
2023/06/16 14:19:40;;;;;;;4.05;2.47;;;;;;;;;;5033359;28;93323;-72
2023/06/16 14:22:06;;;;;;;2.92;2.53;;;;;;;;;;5034253;28;91798;-72
2023/06/16 14:24:33;;;;;;;6.40;2.30;;;;;;;;;;5033482;28;92422;-72
2023/06/16 14:26:59;;;;;;;9.48;2.50;;;;;;;;;;5033304;27;93506;-72
2023/06/16 14:29:26;;;;;;;9.10;2.70;;;;;;;;;;5031858;28;94891;-71
2023/06/16 14:31:52;;;;;;;5.35;2.72;;;;;;;;;;5035886;28;95590;-72
2023/06/16 14:34:18;;;;;;;6.13;2.42;;;;;;;;;;5036797;28;93551;-72
2023/06/16 14:36:45;;;;;;;5.28;2.17;;;;;;;;;;5025198;28;92410;-72
2023/06/16 14:39:11;;;;;;;6.97;2.80;;;;;;;;;;5017070;28;94550;-72